Startpagina
METAR-TAF:

METAR-TAF

Vliegvelden :

Kasane Airport

Kasane, Botswana

breedte: 17-49S, lengte: 025-09E, hoogte: 968 m

Actueel weer

Dit bericht is 8 uur en het 26 minuten geleden gemaakt, om 18:00 UTC
Wind 6 kt uit het zuidzuidoosten
Temperatuur 22°C
Vochtigheid 88%
Druk 1017 hPa
Zicht 10 km of meer
Gebroken wolken op 2000 ft
Weinig wolken op 3000 ft, Cumulonimbus.
onweer

METAR: FBKE 281800Z 16006KT 9999 TS BKN020 FEW030CB 22/20 Q1017

Tijdstip: 04:26 (02:26 UTC)

Verwachting

Dit bericht is 14 uur en het 26 minuten geleden gemaakt, om 12:00 UTC
Verwachting geldig van 28 om 15 UTC tot 28 om 24 UTC
Wind 7 kt uit het oosten
Zicht 10 km of meer
Verspreide wolken op 3000 ft
Weinig wolken op 3500 ft, Cumulonimbus.
Verspreide wolken op 7000 ft

TAF: FBKE 281200Z 2815/2824 09007KT 9999 SCT030 FEW035CB SCT070

Waarnemingen en weersverwachtingen van meer dan 4000 vliegvelden (METAR en TAF).

De beschikbare stations zijn de gele en rode punten op de kaart.

Ga met uw muis naar het station om de naam te zien.

Klik dan om waarnemingen en weersverwachtingen te zien.

kaart wijzigen: klik op de groene knoppen met een zwart kruis om in te zoomen, op de groene knop met een streepje om uit te zoomen of op de groene pijlen voor aangrenzende kaarten.


METAR-TAF: